sensor_id;sensor_type;location;lat;lon;timestamp;pressure;altitude;pressure_sealevel;temperature;humidity
9521;BME280;4798;41.574;23.734;2024-01-30T00:01:02;97096.38;;;3.64;44.44
9521;BME280;4798;41.574;23.734;2024-01-30T00:03:32;97105.72;;;3.23;44.91
9521;BME280;4798;41.574;23.734;2024-01-30T00:06:03;97110.13;;;3.52;44.21
9521;BME280;4798;41.574;23.734;2024-01-30T00:08:32;97116.97;;;3.09;46.91
9521;BME280;4798;41.574;23.734;2024-01-30T00:11:01;97120.44;;;3.53;44.31
9521;BME280;4798;41.574;23.734;2024-01-30T00:13:29;97120.88;;;3.42;44.04
9521;BME280;4798;41.574;23.734;2024-01-30T00:15:58;97129.50;;;3.36;44.23
9521;BME280;4798;41.574;23.734;2024-01-30T00:18:27;97122.81;;;3.48;44.31
9521;BME280;4798;41.574;23.734;2024-01-30T00:20:57;97120.16;;;3.77;43.24
9521;BME280;4798;41.574;23.734;2024-01-30T00:23:25;97121.78;;;3.05;45.15
9521;BME280;4798;41.574;23.734;2024-01-30T00:25:54;97128.41;;;3.45;44.76
9521;BME280;4798;41.574;23.734;2024-01-30T00:28:24;97125.38;;;3.19;44.88
9521;BME280;4798;41.574;23.734;2024-01-30T00:30:52;97130.00;;;3.17;45.10
9521;BME280;4798;41.574;23.734;2024-01-30T00:33:21;97119.44;;;3.10;45.13
9521;BME280;4798;41.574;23.734;2024-01-30T00:35:50;97122.31;;;3.01;45.63
9521;BME280;4798;41.574;23.734;2024-01-30T00:38:20;97122.66;;;2.98;46.06
9521;BME280;4798;41.574;23.734;2024-01-30T00:40:48;97120.22;;;2.74;46.50
9521;BME280;4798;41.574;23.734;2024-01-30T00:43:17;97118.50;;;2.43;46.70
9521;BME280;4798;41.574;23.734;2024-01-30T00:45:46;97114.09;;;2.44;47.20
9521;BME280;4798;41.574;23.734;2024-01-30T00:48:14;97114.63;;;2.39;46.80
9521;BME280;4798;41.574;23.734;2024-01-30T00:50:43;97110.78;;;2.27;47.06
9521;BME280;4798;41.574;23.734;2024-01-30T00:53:12;97118.38;;;2.14;47.81
9521;BME280;4798;41.574;23.734;2024-01-30T00:55:43;97109.97;;;1.96;48.52
9521;BME280;4798;41.574;23.734;2024-01-30T00:58:11;97054.97;;;2.12;48.46
9521;BME280;4798;41.574;23.734;2024-01-30T01:00:40;97108.03;;;2.66;47.44
9521;BME280;4798;41.574;23.734;2024-01-30T01:03:09;97102.84;;;2.81;46.75
9521;BME280;4798;41.574;23.734;2024-01-30T01:05:37;97099.16;;;2.90;49.08
9521;BME280;4798;41.574;23.734;2024-01-30T01:08:06;97102.00;;;2.66;46.88
9521;BME280;4798;41.574;23.734;2024-01-30T01:10:36;97084.47;;;2.21;47.67
9521;BME280;4798;41.574;23.734;2024-01-30T01:13:06;97102.41;;;2.32;48.00
9521;BME280;4798;41.574;23.734;2024-01-30T01:15:35;97068.38;;;2.09;48.11
9521;BME280;4798;41.574;23.734;2024-01-30T01:18:04;97093.03;;;2.60;47.81
9521;BME280;4798;41.574;23.734;2024-01-30T01:20:33;97087.78;;;2.83;54.50
9521;BME280;4798;41.574;23.734;2024-01-30T01:23:01;97081.91;;;2.81;47.04
9521;BME280;4798;41.574;23.734;2024-01-30T01:25:30;97086.69;;;2.09;47.58
9521;BME280;4798;41.574;23.734;2024-01-30T01:27:58;97083.50;;;2.22;48.24
9521;BME280;4798;41.574;23.734;2024-01-30T01:30:30;97080.06;;;2.44;47.76
9521;BME280;4798;41.574;23.734;2024-01-30T01:32:58;97084.44;;;2.51;47.61
9521;BME280;4798;41.574;23.734;2024-01-30T01:35:29;97083.56;;;2.36;48.03
9521;BME280;4798;41.574;23.734;2024-01-30T01:37:58;97087.16;;;2.58;47.38
9521;BME280;4798;41.574;23.734;2024-01-30T01:40:27;97078.78;;;2.63;46.62
9521;BME280;4798;41.574;23.734;2024-01-30T01:42:56;97022.13;;;1.87;47.82
9521;BME280;4798;41.574;23.734;2024-01-30T01:45:24;97074.38;;;2.18;48.53
9521;BME280;4798;41.574;23.734;2024-01-30T01:47:54;97074.63;;;2.00;48.20
9521;BME280;4798;41.574;23.734;2024-01-30T01:50:24;97055.47;;;2.08;48.07
9521;BME280;4798;41.574;23.734;2024-01-30T01:52:54;97071.00;;;2.32;48.11
9521;BME280;4798;41.574;23.734;2024-01-30T01:55:24;97006.44;;;1.87;48.17
9521;BME280;4798;41.574;23.734;2024-01-30T01:57:55;97073.91;;;2.14;48.09
9521;BME280;4798;41.574;23.734;2024-01-30T02:00:24;97080.72;;;2.23;48.74
9521;BME280;4798;41.574;23.734;2024-01-30T02:02:55;97072.56;;;2.18;47.99
9521;BME280;4798;41.574;23.734;2024-01-30T02:05:24;97088.97;;;2.12;48.66
9521;BME280;4798;41.574;23.734;2024-01-30T02:07:54;97075.41;;;2.09;48.25
9521;BME280;4798;41.574;23.734;2024-01-30T02:10:23;97008.81;;;1.74;48.38
9521;BME280;4798;41.574;23.734;2024-01-30T02:12:52;97084.59;;;2.05;48.49
9521;BME280;4798;41.574;23.734;2024-01-30T02:15:20;97083.03;;;2.18;48.20
9521;BME280;4798;41.574;23.734;2024-01-30T02:17:49;97064.66;;;2.26;48.31
9521;BME280;4798;41.574;23.734;2024-01-30T02:20:19;97092.00;;;2.46;47.68
9521;BME280;4798;41.574;23.734;2024-01-30T02:22:50;97086.94;;;2.22;48.11
9521;BME280;4798;41.574;23.734;2024-01-30T02:25:19;97073.91;;;2.60;47.44
9521;BME280;4798;41.574;23.734;2024-01-30T02:27:49;97025.34;;;2.57;47.37
9521;BME280;4798;41.574;23.734;2024-01-30T02:30:18;97070.88;;;2.25;47.52
9521;BME280;4798;41.574;23.734;2024-01-30T02:32:47;97021.38;;;2.01;48.24
9521;BME280;4798;41.574;23.734;2024-01-30T02:35:15;97058.84;;;2.39;47.99
9521;BME280;4798;41.574;23.734;2024-01-30T02:37:44;97079.97;;;2.37;47.62
9521;BME280;4798;41.574;23.734;2024-01-30T02:40:14;97066.31;;;2.27;50.07
9521;BME280;4798;41.574;23.734;2024-01-30T02:42:43;97074.25;;;2.56;47.70
9521;BME280;4798;41.574;23.734;2024-01-30T02:45:12;97078.56;;;2.27;48.96
9521;BME280;4798;41.574;23.734;2024-01-30T02:47:41;97075.41;;;2.09;48.19
9521;BME280;4798;41.574;23.734;2024-01-30T02:50:10;97073.91;;;2.14;53.64
9521;BME280;4798;41.574;23.734;2024-01-30T02:52:38;97075.72;;;2.36;48.36
9521;BME280;4798;41.574;23.734;2024-01-30T02:55:08;97066.94;;;2.52;47.95
9521;BME280;4798;41.574;23.734;2024-01-30T02:57:38;97071.59;;;2.79;47.43
9521;BME280;4798;41.574;23.734;2024-01-30T03:00:08;97071.72;;;2.86;46.86
9521;BME280;4798;41.574;23.734;2024-01-30T03:02:37;97050.47;;;2.43;48.41
9521;BME280;4798;41.574;23.734;2024-01-30T03:05:08;97076.81;;;2.65;47.27
9521;BME280;4798;41.574;23.734;2024-01-30T03:07:37;97079.00;;;2.76;47.36
9521;BME280;4798;41.574;23.734;2024-01-30T03:10:06;97074.66;;;2.68;46.75
9521;BME280;4798;41.574;23.734;2024-01-30T03:12:35;97074.28;;;2.71;47.56
9521;BME280;4798;41.574;23.734;2024-01-30T03:15:06;97021.88;;;2.42;47.56
9521;BME280;4798;41.574;23.734;2024-01-30T03:17:34;97059.41;;;2.49;47.61
9521;BME280;4798;41.574;23.734;2024-01-30T03:20:04;97073.41;;;2.56;47.91
9521;BME280;4798;41.574;23.734;2024-01-30T03:22:34;97085.84;;;2.39;47.68
9521;BME280;4798;41.574;23.734;2024-01-30T03:25:03;97017.41;;;2.05;47.95
9521;BME280;4798;41.574;23.734;2024-01-30T03:27:32;97073.44;;;2.33;48.25
9521;BME280;4798;41.574;23.734;2024-01-30T03:30:00;97067.03;;;2.36;47.86
9521;BME280;4798;41.574;23.734;2024-01-30T03:32:30;97062.50;;;2.52;47.77
9521;BME280;4798;41.574;23.734;2024-01-30T03:34:59;97073.78;;;2.76;48.63
9521;BME280;4798;41.574;23.734;2024-01-30T03:37:28;97041.56;;;2.52;47.12
9521;BME280;4798;41.574;23.734;2024-01-30T03:39:57;97059.06;;;2.52;47.48
9521;BME280;4798;41.574;23.734;2024-01-30T03:42:26;97075.31;;;2.47;47.97
9521;BME280;4798;41.574;23.734;2024-01-30T03:44:55;97028.00;;;1.89;47.90
9521;BME280;4798;41.574;23.734;2024-01-30T03:47:24;97087.59;;;1.93;48.62
9521;BME280;4798;41.574;23.734;2024-01-30T03:49:54;97083.38;;;1.62;49.44
9521;BME280;4798;41.574;23.734;2024-01-30T03:52:23;97091.44;;;1.44;49.85
9521;BME280;4798;41.574;23.734;2024-01-30T03:54:51;97085.22;;;1.45;49.55
9521;BME280;4798;41.574;23.734;2024-01-30T03:57:20;97084.03;;;1.56;49.36
9521;BME280;4798;41.574;23.734;2024-01-30T03:59:49;97073.56;;;1.64;50.06
9521;BME280;4798;41.574;23.734;2024-01-30T04:02:17;97089.59;;;1.53;49.22
9521;BME280;4798;41.574;23.734;2024-01-30T04:04:46;97046.50;;;1.49;49.17
9521;BME280;4798;41.574;23.734;2024-01-30T04:07:16;97092.16;;;2.00;48.53
9521;BME280;4798;41.574;23.734;2024-01-30T04:09:49;97085.72;;;1.79;48.69
9521;BME280;4798;41.574;23.734;2024-01-30T04:12:18;97029.56;;;1.67;49.32
9521;BME280;4798;41.574;23.734;2024-01-30T04:14:47;97040.19;;;1.97;48.74
9521;BME280;4798;41.574;23.734;2024-01-30T04:17:15;97058.31;;;1.67;49.33
9521;BME280;4798;41.574;23.734;2024-01-30T04:19:44;97088.97;;;1.43;49.43
9521;BME280;4798;41.574;23.734;2024-01-30T04:22:12;97088.03;;;1.74;49.71
9521;BME280;4798;41.574;23.734;2024-01-30T04:24:42;97085.16;;;1.61;49.22
9521;BME280;4798;41.574;23.734;2024-01-30T04:27:11;97086.41;;;1.73;49.39
9521;BME280;4798;41.574;23.734;2024-01-30T04:29:40;97008.00;;;1.43;48.85
9521;BME280;4798;41.574;23.734;2024-01-30T04:32:09;97083.22;;;2.17;48.60
9521;BME280;4798;41.574;23.734;2024-01-30T04:34:38;97009.78;;;1.42;48.62
9521;BME280;4798;41.574;23.734;2024-01-30T04:37:06;97090.13;;;2.10;48.59
9521;BME280;4798;41.574;23.734;2024-01-30T04:39:35;97093.25;;;2.28;48.40
9521;BME280;4798;41.574;23.734;2024-01-30T04:42:06;97088.09;;;2.42;48.08
9521;BME280;4798;41.574;23.734;2024-01-30T04:44:35;97095.47;;;2.62;47.24
9521;BME280;4798;41.574;23.734;2024-01-30T04:47:04;97066.34;;;2.42;48.24
9521;BME280;4798;41.574;23.734;2024-01-30T04:49:35;97096.25;;;2.47;51.63
9521;BME280;4798;41.574;23.734;2024-01-30T04:52:04;97091.94;;;2.32;48.09
9521;BME280;4798;41.574;23.734;2024-01-30T04:54:33;97097.81;;;2.56;49.12
9521;BME280;4798;41.574;23.734;2024-01-30T04:57:02;97095.72;;;2.52;47.93
9521;BME280;4798;41.574;23.734;2024-01-30T04:59:34;97099.06;;;2.15;48.38
9521;BME280;4798;41.574;23.734;2024-01-30T05:02:02;97095.66;;;2.15;47.96
9521;BME280;4798;41.574;23.734;2024-01-30T05:04:32;97097.91;;;2.18;48.33
9521;BME280;4798;41.574;23.734;2024-01-30T05:07:00;96905.06;;;0.51;49.11
9521;BME280;4798;41.574;23.734;2024-01-30T05:09:29;97091.72;;;1.88;48.93
9521;BME280;4798;41.574;23.734;2024-01-30T05:11:58;97103.38;;;1.77;48.99
9521;BME280;4798;41.574;23.734;2024-01-30T05:14:26;97103.13;;;1.64;49.48
9521;BME280;4798;41.574;23.734;2024-01-30T05:16:56;97103.19;;;1.48;49.62
9521;BME280;4798;41.574;23.734;2024-01-30T05:19:25;97100.09;;;1.75;49.42
9521;BME280;4798;41.574;23.734;2024-01-30T05:21:54;97109.22;;;2.10;48.81
9521;BME280;4798;41.574;23.734;2024-01-30T05:24:22;97109.09;;;1.73;48.61
9521;BME280;4798;41.574;23.734;2024-01-30T05:26:53;97115.13;;;1.26;49.93
9521;BME280;4798;41.574;23.734;2024-01-30T05:29:22;97113.41;;;1.66;49.22
9521;BME280;4798;41.574;23.734;2024-01-30T05:31:51;97114.53;;;1.71;49.10
9521;BME280;4798;41.574;23.734;2024-01-30T05:34:21;97125.69;;;1.88;49.02
9521;BME280;4798;41.574;23.734;2024-01-30T05:36:49;97127.59;;;2.02;49.80
9521;BME280;4798;41.574;23.734;2024-01-30T05:39:18;97118.09;;;1.70;50.75
9521;BME280;4798;41.574;23.734;2024-01-30T05:41:47;97112.97;;;1.85;53.11
9521;BME280;4798;41.574;23.734;2024-01-30T05:44:15;97119.59;;;1.65;51.51
9521;BME280;4798;41.574;23.734;2024-01-30T05:46:44;97121.72;;;2.00;52.10
9521;BME280;4798;41.574;23.734;2024-01-30T05:49:12;97125.94;;;1.70;48.90
9521;BME280;4798;41.574;23.734;2024-01-30T05:51:43;97132.22;;;1.53;49.17
9521;BME280;4798;41.574;23.734;2024-01-30T05:54:11;97134.00;;;1.61;49.17
9521;BME280;4798;41.574;23.734;2024-01-30T05:56:44;97137.47;;;1.45;49.12
9521;BME280;4798;41.574;23.734;2024-01-30T05:59:13;97109.84;;;1.59;49.79
9521;BME280;4798;41.574;23.734;2024-01-30T06:01:45;97143.06;;;1.81;53.26
9521;BME280;4798;41.574;23.734;2024-01-30T06:04:15;97095.09;;;1.66;50.65
9521;BME280;4798;41.574;23.734;2024-01-30T06:06:45;97147.47;;;1.34;49.85
9521;BME280;4798;41.574;23.734;2024-01-30T06:09:14;97141.09;;;1.44;49.80
9521;BME280;4798;41.574;23.734;2024-01-30T06:11:42;97144.22;;;1.32;49.88
9521;BME280;4798;41.574;23.734;2024-01-30T06:14:11;97124.69;;;1.03;50.46
9521;BME280;4798;41.574;23.734;2024-01-30T06:16:40;97145.09;;;1.55;50.27
9521;BME280;4798;41.574;23.734;2024-01-30T06:19:09;97142.44;;;1.71;49.58
9521;BME280;4798;41.574;23.734;2024-01-30T06:21:37;97145.19;;;1.39;50.03
9521;BME280;4798;41.574;23.734;2024-01-30T06:24:08;97146.56;;;1.65;51.32
9521;BME280;4798;41.574;23.734;2024-01-30T06:26:36;97149.44;;;1.78;49.50
9521;BME280;4798;41.574;23.734;2024-01-30T06:29:05;97142.84;;;1.52;49.61
9521;BME280;4798;41.574;23.734;2024-01-30T06:31:40;97125.75;;;2.11;48.23
9521;BME280;4798;41.574;23.734;2024-01-30T06:34:08;97154.38;;;2.12;49.06
9521;BME280;4798;41.574;23.734;2024-01-30T06:36:38;97145.59;;;2.50;48.23
9521;BME280;4798;41.574;23.734;2024-01-30T06:39:08;97144.53;;;3.05;46.52
9521;BME280;4798;41.574;23.734;2024-01-30T06:41:37;97141.84;;;3.57;45.55
9521;BME280;4798;41.574;23.734;2024-01-30T06:44:05;97141.84;;;4.01;44.57
9521;BME280;4798;41.574;23.734;2024-01-30T06:46:35;97112.50;;;3.61;44.61
9521;BME280;4798;41.574;23.734;2024-01-30T06:49:04;97138.91;;;4.46;44.95
9521;BME280;4798;41.574;23.734;2024-01-30T06:51:32;97137.69;;;5.40;47.07
9521;BME280;4798;41.574;23.734;2024-01-30T06:54:01;97148.72;;;5.01;42.54
9521;BME280;4798;41.574;23.734;2024-01-30T06:56:31;97145.72;;;5.32;41.84
9521;BME280;4798;41.574;23.734;2024-01-30T06:59:00;97137.06;;;4.82;42.27
9521;BME280;4798;41.574;23.734;2024-01-30T07:01:28;97136.69;;;5.68;41.47
9521;BME280;4798;41.574;23.734;2024-01-30T07:03:57;97093.59;;;5.35;40.67
9521;BME280;4798;41.574;23.734;2024-01-30T07:06:26;97131.75;;;6.54;40.59
9521;BME280;4798;41.574;23.734;2024-01-30T07:08:55;97129.59;;;7.42;39.03
9521;BME280;4798;41.574;23.734;2024-01-30T07:11:24;97119.44;;;7.46;37.72
9521;BME280;4798;41.574;23.734;2024-01-30T07:13:54;97131.81;;;7.32;41.43
9521;BME280;4798;41.574;23.734;2024-01-30T07:16:23;97135.28;;;7.33;38.46
9521;BME280;4798;41.574;23.734;2024-01-30T07:18:51;97131.75;;;7.78;38.23
9521;BME280;4798;41.574;23.734;2024-01-30T07:21:20;97133.84;;;8.27;37.69
9521;BME280;4798;41.574;23.734;2024-01-30T07:23:54;97084.34;;;8.47;38.59
9521;BME280;4798;41.574;23.734;2024-01-30T07:26:23;97137.91;;;8.67;41.31
9521;BME280;4798;41.574;23.734;2024-01-30T07:28:52;97136.59;;;9.32;43.59
9521;BME280;4798;41.574;23.734;2024-01-30T07:31:22;97136.50;;;8.27;39.66
9521;BME280;4798;41.574;23.734;2024-01-30T07:33:51;97143.19;;;8.29;44.85
9521;BME280;4798;41.574;23.734;2024-01-30T07:36:20;97136.50;;;9.45;39.67
9521;BME280;4798;41.574;23.734;2024-01-30T07:38:49;97145.06;;;9.16;36.91
9521;BME280;4798;41.574;23.734;2024-01-30T07:41:18;97147.06;;;9.70;35.50
9521;BME280;4798;41.574;23.734;2024-01-30T07:43:47;97142.34;;;9.72;34.64
9521;BME280;4798;41.574;23.734;2024-01-30T07:46:15;97148.22;;;9.56;34.36
9521;BME280;4798;41.574;23.734;2024-01-30T07:48:45;97138.44;;;9.32;34.47
9521;BME280;4798;41.574;23.734;2024-01-30T07:51:16;97126.03;;;9.75;35.32
9521;BME280;4798;41.574;23.734;2024-01-30T07:53:45;97131.75;;;9.72;35.77
9521;BME280;4798;41.574;23.734;2024-01-30T07:56:13;97126.94;;;10.53;34.13
9521;BME280;4798;41.574;23.734;2024-01-30T07:58:43;97140.88;;;10.49;33.93
9521;BME280;4798;41.574;23.734;2024-01-30T08:01:11;97136.16;;;11.33;35.89
9521;BME280;4798;41.574;23.734;2024-01-30T08:03:40;97112.19;;;10.87;35.61
9521;BME280;4798;41.574;23.734;2024-01-30T08:06:11;97056.50;;;10.99;36.06
9521;BME280;4798;41.574;23.734;2024-01-30T08:08:39;97125.13;;;11.71;36.88
9521;BME280;4798;41.574;23.734;2024-01-30T08:11:08;97141.81;;;11.25;36.21
9521;BME280;4798;41.574;23.734;2024-01-30T08:13:36;97123.72;;;11.45;39.29
9521;BME280;4798;41.574;23.734;2024-01-30T08:16:06;97120.56;;;11.25;34.31
9521;BME280;4798;41.574;23.734;2024-01-30T08:18:38;97088.31;;;10.87;33.66
9521;BME280;4798;41.574;23.734;2024-01-30T08:21:07;97123.91;;;12.02;32.35
9521;BME280;4798;41.574;23.734;2024-01-30T08:23:38;97126.25;;;11.40;33.94
9521;BME280;4798;41.574;23.734;2024-01-30T08:26:06;97129.03;;;12.43;33.59
9521;BME280;4798;41.574;23.734;2024-01-30T08:28:35;97118.41;;;11.80;32.66
9521;BME280;4798;41.574;23.734;2024-01-30T08:31:04;97112.63;;;10.72;32.64
9521;BME280;4798;41.574;23.734;2024-01-30T08:33:33;97086.97;;;10.55;33.03
9521;BME280;4798;41.574;23.734;2024-01-30T08:36:01;97126.78;;;12.80;34.76
9521;BME280;4798;41.574;23.734;2024-01-30T08:38:30;97106.50;;;11.25;32.99
9521;BME280;4798;41.574;23.734;2024-01-30T08:41:00;97080.06;;;11.30;31.52
9521;BME280;4798;41.574;23.734;2024-01-30T08:43:30;97116.47;;;12.27;31.30
9521;BME280;4798;41.574;23.734;2024-01-30T08:45:59;97119.56;;;12.92;33.06
9521;BME280;4798;41.574;23.734;2024-01-30T08:48:28;97121.72;;;13.07;30.42
9521;BME280;4798;41.574;23.734;2024-01-30T08:50:56;97117.84;;;12.86;31.96
9521;BME280;4798;41.574;23.734;2024-01-30T08:53:25;97114.16;;;12.87;31.94
9521;BME280;4798;41.574;23.734;2024-01-30T08:55:54;97116.19;;;12.97;30.88
9521;BME280;4798;41.574;23.734;2024-01-30T08:58:27;97115.06;;;12.93;32.20
9521;BME280;4798;41.574;23.734;2024-01-30T09:00:56;97067.16;;;12.93;30.12
9521;BME280;4798;41.574;23.734;2024-01-30T09:03:25;97099.81;;;12.60;33.50
9521;BME280;4798;41.574;23.734;2024-01-30T09:05:54;97077.16;;;13.19;30.14
9521;BME280;4798;41.574;23.734;2024-01-30T09:08:23;97090.09;;;13.27;35.81
9521;BME280;4798;41.574;23.734;2024-01-30T09:10:52;97093.56;;;12.83;30.33
9521;BME280;4798;41.574;23.734;2024-01-30T09:13:22;97049.59;;;12.47;31.30
9521;BME280;4798;41.574;23.734;2024-01-30T09:15:52;97095.34;;;12.21;31.24
9521;BME280;4798;41.574;23.734;2024-01-30T09:18:23;97077.47;;;12.44;30.78
9521;BME280;4798;41.574;23.734;2024-01-30T09:20:52;97088.09;;;12.89;29.56
9521;BME280;4798;41.574;23.734;2024-01-30T09:23:21;97093.25;;;12.51;32.53
9521;BME280;4798;41.574;23.734;2024-01-30T09:25:49;97073.50;;;12.92;37.06
9521;BME280;4798;41.574;23.734;2024-01-30T09:28:18;97067.94;;;13.81;31.25
9521;BME280;4798;41.574;23.734;2024-01-30T09:30:49;97076.59;;;13.50;29.59
9521;BME280;4798;41.574;23.734;2024-01-30T09:33:19;97074.22;;;13.92;29.83
9521;BME280;4798;41.574;23.734;2024-01-30T09:35:48;97082.91;;;13.27;33.75
9521;BME280;4798;41.574;23.734;2024-01-30T09:38:18;97077.03;;;12.81;29.59
9521;BME280;4798;41.574;23.734;2024-01-30T09:40:53;97082.59;;;13.07;30.80
9521;BME280;4798;41.574;23.734;2024-01-30T09:43:23;97067.75;;;12.10;30.41
9521;BME280;4798;41.574;23.734;2024-01-30T09:45:54;97059.44;;;12.06;29.96
9521;BME280;4798;41.574;23.734;2024-01-30T09:48:25;97060.38;;;13.35;29.32
9521;BME280;4798;41.574;23.734;2024-01-30T09:50:56;97058.09;;;13.44;29.06
9521;BME280;4798;41.574;23.734;2024-01-30T09:53:25;97034.78;;;14.37;30.61
9521;BME280;4798;41.574;23.734;2024-01-30T09:55:56;97047.06;;;13.35;29.48
9521;BME280;4798;41.574;23.734;2024-01-30T09:58:25;97038.63;;;13.60;29.15
9521;BME280;4798;41.574;23.734;2024-01-30T10:00:54;97035.94;;;13.05;29.08
9521;BME280;4798;41.574;23.734;2024-01-30T10:03:27;96997.72;;;12.33;29.21
9521;BME280;4798;41.574;23.734;2024-01-30T10:05:56;97021.78;;;11.98;37.04
9521;BME280;4798;41.574;23.734;2024-01-30T10:08:26;97030.28;;;13.01;30.16
9521;BME280;4798;41.574;23.734;2024-01-30T10:10:57;97012.97;;;13.75;29.67
9521;BME280;4798;41.574;23.734;2024-01-30T10:13:26;97018.78;;;14.16;30.43
9521;BME280;4798;41.574;23.734;2024-01-30T10:15:55;97012.78;;;13.82;30.29
9521;BME280;4798;41.574;23.734;2024-01-30T10:18:27;97007.91;;;13.95;30.74
9521;BME280;4798;41.574;23.734;2024-01-30T10:20:56;97011.47;;;12.91;29.57
9521;BME280;4798;41.574;23.734;2024-01-30T10:23:25;97013.72;;;13.71;32.76
9521;BME280;4798;41.574;23.734;2024-01-30T10:26:00;96942.72;;;12.66;29.36
9521;BME280;4798;41.574;23.734;2024-01-30T10:28:29;96987.19;;;13.59;29.52
9521;BME280;4798;41.574;23.734;2024-01-30T10:30:58;96984.03;;;13.62;30.36
9521;BME280;4798;41.574;23.734;2024-01-30T10:33:33;96986.50;;;12.92;30.37
9521;BME280;4798;41.574;23.734;2024-01-30T10:36:03;96985.16;;;12.28;30.07
9521;BME280;4798;41.574;23.734;2024-01-30T10:38:33;96956.19;;;13.31;31.28
9521;BME280;4798;41.574;23.734;2024-01-30T10:41:01;96985.31;;;12.38;29.76
9521;BME280;4798;41.574;23.734;2024-01-30T10:43:32;96936.19;;;13.29;29.62
9521;BME280;4798;41.574;23.734;2024-01-30T10:46:10;96964.50;;;13.57;28.44
9521;BME280;4798;41.574;23.734;2024-01-30T10:48:43;96885.00;;;13.05;28.77
9521;BME280;4798;41.574;23.734;2024-01-30T10:51:13;96951.06;;;13.25;29.22
9521;BME280;4798;41.574;23.734;2024-01-30T10:53:44;96950.84;;;13.10;28.93
9521;BME280;4798;41.574;23.734;2024-01-30T10:56:16;96939.84;;;14.15;28.44
9521;BME280;4798;41.574;23.734;2024-01-30T10:58:45;96947.81;;;14.36;28.40
9521;BME280;4798;41.574;23.734;2024-01-30T11:01:14;96917.41;;;13.19;28.38
9521;BME280;4798;41.574;23.734;2024-01-30T11:03:45;96930.53;;;14.17;28.62
9521;BME280;4798;41.574;23.734;2024-01-30T11:06:14;96923.19;;;14.29;28.15
9521;BME280;4798;41.574;23.734;2024-01-30T11:08:46;96917.44;;;14.74;27.68
9521;BME280;4798;41.574;23.734;2024-01-30T11:11:16;96927.38;;;13.07;28.97
9521;BME280;4798;41.574;23.734;2024-01-30T11:13:46;96912.84;;;14.33;28.14
9521;BME280;4798;41.574;23.734;2024-01-30T11:16:22;96837.91;;;13.27;28.83
9521;BME280;4798;41.574;23.734;2024-01-30T11:18:53;96911.53;;;14.35;27.99
9521;BME280;4798;41.574;23.734;2024-01-30T11:21:25;96905.56;;;14.01;28.15
9521;BME280;4798;41.574;23.734;2024-01-30T11:23:55;96901.09;;;15.02;27.70
9521;BME280;4798;41.574;23.734;2024-01-30T11:26:27;96886.16;;;15.11;27.78
9521;BME280;4798;41.574;23.734;2024-01-30T11:28:57;96891.06;;;14.83;27.49
9521;BME280;4798;41.574;23.734;2024-01-30T11:31:25;96879.03;;;16.09;27.19
9521;BME280;4798;41.574;23.734;2024-01-30T11:33:56;96870.91;;;15.64;26.74
9521;BME280;4798;41.574;23.734;2024-01-30T11:36:26;96843.34;;;14.91;27.63
9521;BME280;4798;41.574;23.734;2024-01-30T11:38:55;96850.63;;;15.68;27.99
9521;BME280;4798;41.574;23.734;2024-01-30T11:41:24;96872.53;;;14.29;27.26
9521;BME280;4798;41.574;23.734;2024-01-30T11:43:53;96865.66;;;14.75;28.19
9521;BME280;4798;41.574;23.734;2024-01-30T11:46:25;96872.69;;;14.91;27.27
9521;BME280;4798;41.574;23.734;2024-01-30T11:48:53;96879.09;;;15.42;27.44
9521;BME280;4798;41.574;23.734;2024-01-30T11:51:23;96869.38;;;15.83;27.24
9521;BME280;4798;41.574;23.734;2024-01-30T11:53:52;96869.66;;;16.22;26.61
9521;BME280;4798;41.574;23.734;2024-01-30T11:56:21;96865.34;;;15.13;26.48
9521;BME280;4798;41.574;23.734;2024-01-30T11:58:49;96849.34;;;13.76;27.55
9521;BME280;4798;41.574;23.734;2024-01-30T12:01:19;96816.06;;;13.25;27.79
9521;BME280;4798;41.574;23.734;2024-01-30T12:03:49;96865.88;;;13.73;28.04
9521;BME280;4798;41.574;23.734;2024-01-30T12:06:18;96836.25;;;14.01;27.85
9521;BME280;4798;41.574;23.734;2024-01-30T12:08:57;96852.13;;;13.60;27.61
9521;BME280;4798;41.574;23.734;2024-01-30T12:11:27;96846.03;;;14.49;27.69
9521;BME280;4798;41.574;23.734;2024-01-30T12:13:57;96846.81;;;14.50;27.44
9521;BME280;4798;41.574;23.734;2024-01-30T12:16:26;96851.28;;;15.38;26.84
9521;BME280;4798;41.574;23.734;2024-01-30T12:19:01;96839.03;;;14.90;26.04
9521;BME280;4798;41.574;23.734;2024-01-30T12:21:30;96849.13;;;15.30;26.27
9521;BME280;4798;41.574;23.734;2024-01-30T12:24:00;96841.78;;;16.93;25.66
9521;BME280;4798;41.574;23.734;2024-01-30T12:26:29;96850.03;;;17.22;25.00
9521;BME280;4798;41.574;23.734;2024-01-30T12:28:58;96675.78;;;16.83;25.03
9521;BME280;4798;41.574;23.734;2024-01-30T12:31:28;96834.44;;;17.88;24.64
9521;BME280;4798;41.574;23.734;2024-01-30T12:33:59;96826.84;;;16.82;26.33
9521;BME280;4798;41.574;23.734;2024-01-30T12:36:28;96822.03;;;16.79;24.79
9521;BME280;4798;41.574;23.734;2024-01-30T12:38:59;96835.44;;;16.69;25.16
9521;BME280;4798;41.574;23.734;2024-01-30T12:41:29;96822.53;;;14.98;26.03
9521;BME280;4798;41.574;23.734;2024-01-30T12:43:59;96841.22;;;14.51;27.02
9521;BME280;4798;41.574;23.734;2024-01-30T12:46:28;96841.31;;;13.45;27.49
9521;BME280;4798;41.574;23.734;2024-01-30T12:48:57;96846.19;;;13.31;28.08
9521;BME280;4798;41.574;23.734;2024-01-30T12:51:26;96846.31;;;14.21;30.36
9521;BME280;4798;41.574;23.734;2024-01-30T12:53:55;96834.16;;;13.77;27.52
9521;BME280;4798;41.574;23.734;2024-01-30T12:56:25;96848.69;;;13.64;27.44
9521;BME280;4798;41.574;23.734;2024-01-30T12:58:53;96786.09;;;13.13;28.46
9521;BME280;4798;41.574;23.734;2024-01-30T13:01:22;96851.91;;;14.25;27.51
9521;BME280;4798;41.574;23.734;2024-01-30T13:03:52;96846.16;;;15.21;27.25
9521;BME280;4798;41.574;23.734;2024-01-30T13:06:21;96842.38;;;14.66;26.58
9521;BME280;4798;41.574;23.734;2024-01-30T13:08:50;96750.56;;;13.56;27.07
9521;BME280;4798;41.574;23.734;2024-01-30T13:11:19;96847.69;;;15.02;26.42
9521;BME280;4798;41.574;23.734;2024-01-30T13:13:49;96840.84;;;14.75;26.03
9521;BME280;4798;41.574;23.734;2024-01-30T13:16:18;96837.09;;;13.27;27.23
9521;BME280;4798;41.574;23.734;2024-01-30T13:18:46;96832.72;;;15.06;26.95
9521;BME280;4798;41.574;23.734;2024-01-30T13:21:15;96830.13;;;15.21;26.29
9521;BME280;4798;41.574;23.734;2024-01-30T13:23:44;96829.59;;;15.24;27.17
9521;BME280;4798;41.574;23.734;2024-01-30T13:26:13;96826.94;;;13.72;27.15
9521;BME280;4798;41.574;23.734;2024-01-30T13:28:41;96784.44;;;13.07;27.73